Redville, Wisconsin
Current Conditions -  °F | °C
As of 6:15 AM on Thursday 29 Jan 2015 (Local Time) from KMDZ Reporting Station
Haze Haze  
Wind Chill: 16°   Ceiling: 300
Heat Index: 27°   Visibility: 3mi
Dew Point: 26°   Wind: 12mph
Humidity: 96%   Direction: 320°NW
Pressure: 29.84"   Gusts: NA
Location:  45.0116°N, 90.6109°W
Report Text: KMDZ 291215Z AUTO 32010KT 3SM BR OVC003 M03/M03 A2984 RMK AO2 T10301035
Loading
Personal Weather Stations






























Interactive Weather Map New forecast layout! Learn more

10-Day Weather Forecast

Advertisements
Track Severe Weather on mobile